NFTF/TBU METAR and TAF weather

Enter ICAO airport designator
Station Type Date Time Source
NFTF METAR 2019/12/09 22:00 UTC NOAA

NFTF 092200Z 32006KT 9999 FEW009 SCT018TCU BKN270 27/25 Q1009


Station Type Date Time Source
NFTF Decoded METAR 2019/12/09 22:00 UTC NOAA

Fua'Amotu, Tonga (NFTF) 21-14S 175-09W 41M
Dec 09, 2019 - 05:00 PM EST / 2019.12.09 2200 UTC
Wind: from the NW (320 degrees) at 7 MPH (6 KT):0
Visibility: greater than 7 mile(s):0
Sky conditions: mostly cloudy
Weather: Towering cumulus clouds observed
Temperature: 80 F (27 C)
Dew Point: 77 F (25 C)
Relative Humidity: 88%
Pressure (altimeter): 29.80 in. Hg (1009 hPa)
ob: NFTF 092200Z 32006KT 9999 FEW009 SCT018TCU BKN270 27/25 Q1009
cycle: 22

Station Type Date Time Source
NFTF TAF 2019/12/09 18:15 UTC NOAA

TAF NFTF 091710Z 0918/1018 07006KT 9999 -SHRA FEW016 SCT030 PROB40
TEMPO 0918/1006 5000 SHRA BKN015 BKN040

Example: see airport list